sensor_id;sensor_type;location;lat;lon;timestamp;temperature;humidity
13817;DHT22;6979;52.116;5.286;2022-11-23T00:01:15;12.70;99.90
13817;DHT22;6979;52.116;5.286;2022-11-23T00:03:42;12.70;99.90
13817;DHT22;6979;52.116;5.286;2022-11-23T00:06:09;12.70;99.90
13817;DHT22;6979;52.116;5.286;2022-11-23T00:08:36;12.70;99.90
13817;DHT22;6979;52.116;5.286;2022-11-23T00:11:03;12.80;99.90
13817;DHT22;6979;52.116;5.286;2022-11-23T00:13:32;12.80;99.90
13817;DHT22;6979;52.116;5.286;2022-11-23T00:15:59;12.80;99.90
13817;DHT22;6979;52.116;5.286;2022-11-23T00:18:26;12.80;99.90
13817;DHT22;6979;52.116;5.286;2022-11-23T00:20:53;12.80;99.90
13817;DHT22;6979;52.116;5.286;2022-11-23T00:23:20;12.80;99.90
13817;DHT22;6979;52.116;5.286;2022-11-23T00:25:46;12.80;99.90
13817;DHT22;6979;52.116;5.286;2022-11-23T00:28:13;12.80;99.90
13817;DHT22;6979;52.116;5.286;2022-11-23T00:30:41;12.80;99.90
13817;DHT22;6979;52.116;5.286;2022-11-23T00:33:08;12.80;99.90
13817;DHT22;6979;52.116;5.286;2022-11-23T00:35:35;12.80;99.90
13817;DHT22;6979;52.116;5.286;2022-11-23T00:38:02;12.90;99.90
13817;DHT22;6979;52.116;5.286;2022-11-23T00:40:29;12.90;99.90
13817;DHT22;6979;52.116;5.286;2022-11-23T00:42:56;12.90;99.90
13817;DHT22;6979;52.116;5.286;2022-11-23T00:45:22;12.90;99.90
13817;DHT22;6979;52.116;5.286;2022-11-23T00:47:50;12.90;99.90
13817;DHT22;6979;52.116;5.286;2022-11-23T00:50:17;12.90;99.90
13817;DHT22;6979;52.116;5.286;2022-11-23T00:52:44;12.90;99.90
13817;DHT22;6979;52.116;5.286;2022-11-23T00:55:11;12.90;99.90
13817;DHT22;6979;52.116;5.286;2022-11-23T00:57:38;12.90;99.90
13817;DHT22;6979;52.116;5.286;2022-11-23T01:00:06;13.00;99.90
13817;DHT22;6979;52.116;5.286;2022-11-23T01:02:33;13.00;99.90
13817;DHT22;6979;52.116;5.286;2022-11-23T01:05:02;13.00;99.90
13817;DHT22;6979;52.116;5.286;2022-11-23T01:07:29;13.00;99.90
13817;DHT22;6979;52.116;5.286;2022-11-23T01:09:56;13.00;99.90
13817;DHT22;6979;52.116;5.286;2022-11-23T01:12:23;13.00;99.90
13817;DHT22;6979;52.116;5.286;2022-11-23T01:14:52;13.00;99.90
13817;DHT22;6979;52.116;5.286;2022-11-23T01:17:20;13.00;99.90
13817;DHT22;6979;52.116;5.286;2022-11-23T01:19:47;13.00;99.90
13817;DHT22;6979;52.116;5.286;2022-11-23T01:22:16;13.00;99.90
13817;DHT22;6979;52.116;5.286;2022-11-23T01:24:44;13.00;99.90
13817;DHT22;6979;52.116;5.286;2022-11-23T01:27:11;13.00;99.90
13817;DHT22;6979;52.116;5.286;2022-11-23T01:29:38;13.00;99.90
13817;DHT22;6979;52.116;5.286;2022-11-23T01:32:05;13.00;99.90
13817;DHT22;6979;52.116;5.286;2022-11-23T01:34:32;13.00;99.90
13817;DHT22;6979;52.116;5.286;2022-11-23T01:36:58;13.00;99.90
13817;DHT22;6979;52.116;5.286;2022-11-23T01:39:28;13.00;99.90
13817;DHT22;6979;52.116;5.286;2022-11-23T01:41:55;13.00;99.90
13817;DHT22;6979;52.116;5.286;2022-11-23T01:44:27;13.00;99.90
13817;DHT22;6979;52.116;5.286;2022-11-23T01:46:57;13.00;99.90
13817;DHT22;6979;52.116;5.286;2022-11-23T01:49:25;13.00;99.90
13817;DHT22;6979;52.116;5.286;2022-11-23T01:51:56;12.90;99.90
13817;DHT22;6979;52.116;5.286;2022-11-23T01:54:27;13.00;99.90
13817;DHT22;6979;52.116;5.286;2022-11-23T01:57:02;12.90;99.90
13817;DHT22;6979;52.116;5.286;2022-11-23T01:59:30;12.90;99.90
13817;DHT22;6979;52.116;5.286;2022-11-23T02:01:59;12.90;99.90
13817;DHT22;6979;52.116;5.286;2022-11-23T02:04:30;12.90;99.90
13817;DHT22;6979;52.116;5.286;2022-11-23T02:06:59;12.90;99.90
13817;DHT22;6979;52.116;5.286;2022-11-23T02:09:28;12.90;99.90
13817;DHT22;6979;52.116;5.286;2022-11-23T02:11:57;12.90;99.90
13817;DHT22;6979;52.116;5.286;2022-11-23T02:14:26;12.90;99.90
13817;DHT22;6979;52.116;5.286;2022-11-23T02:16:54;12.90;99.90
13817;DHT22;6979;52.116;5.286;2022-11-23T02:19:30;12.90;99.90
13817;DHT22;6979;52.116;5.286;2022-11-23T02:21:59;12.90;99.90
13817;DHT22;6979;52.116;5.286;2022-11-23T02:24:30;12.90;99.90
13817;DHT22;6979;52.116;5.286;2022-11-23T02:27:01;12.90;99.90
13817;DHT22;6979;52.116;5.286;2022-11-23T02:29:32;12.80;99.90
13817;DHT22;6979;52.116;5.286;2022-11-23T02:32:00;12.80;99.90
13817;DHT22;6979;52.116;5.286;2022-11-23T02:34:27;12.80;99.90
13817;DHT22;6979;52.116;5.286;2022-11-23T02:36:54;12.80;99.90
13817;DHT22;6979;52.116;5.286;2022-11-23T02:39:27;12.70;99.90
13817;DHT22;6979;52.116;5.286;2022-11-23T02:41:54;12.70;99.90
13817;DHT22;6979;52.116;5.286;2022-11-23T02:44:30;12.70;99.90
13817;DHT22;6979;52.116;5.286;2022-11-23T02:46:59;12.70;99.90
13817;DHT22;6979;52.116;5.286;2022-11-23T02:49:26;12.60;99.90
13817;DHT22;6979;52.116;5.286;2022-11-23T02:51:53;12.60;99.90
13817;DHT22;6979;52.116;5.286;2022-11-23T02:54:21;12.60;99.90
13817;DHT22;6979;52.116;5.286;2022-11-23T02:56:48;12.60;99.90
13817;DHT22;6979;52.116;5.286;2022-11-23T02:59:16;12.60;99.90
13817;DHT22;6979;52.116;5.286;2022-11-23T03:01:44;12.60;99.90
13817;DHT22;6979;52.116;5.286;2022-11-23T03:04:12;12.60;99.90
13817;DHT22;6979;52.116;5.286;2022-11-23T03:06:39;12.60;99.90
13817;DHT22;6979;52.116;5.286;2022-11-23T03:09:06;12.60;99.90
13817;DHT22;6979;52.116;5.286;2022-11-23T03:11:33;12.60;99.90
13817;DHT22;6979;52.116;5.286;2022-11-23T03:14:02;12.60;99.90
13817;DHT22;6979;52.116;5.286;2022-11-23T03:16:34;12.60;99.90
13817;DHT22;6979;52.116;5.286;2022-11-23T03:19:03;12.50;99.90
13817;DHT22;6979;52.116;5.286;2022-11-23T03:21:31;12.60;99.90
13817;DHT22;6979;52.116;5.286;2022-11-23T03:24:05;12.60;99.90
13817;DHT22;6979;52.116;5.286;2022-11-23T03:26:33;12.50;99.90
13817;DHT22;6979;52.116;5.286;2022-11-23T03:29:08;12.60;99.90
13817;DHT22;6979;52.116;5.286;2022-11-23T03:31:36;12.60;99.90
13817;DHT22;6979;52.116;5.286;2022-11-23T03:34:09;12.50;99.90
13817;DHT22;6979;52.116;5.286;2022-11-23T03:36:37;12.60;99.90
13817;DHT22;6979;52.116;5.286;2022-11-23T03:39:04;12.60;99.90
13817;DHT22;6979;52.116;5.286;2022-11-23T03:41:49;12.60;99.90
13817;DHT22;6979;52.116;5.286;2022-11-23T03:44:18;12.60;99.90
13817;DHT22;6979;52.116;5.286;2022-11-23T03:46:45;12.60;99.90
13817;DHT22;6979;52.116;5.286;2022-11-23T03:49:13;12.60;99.90
13817;DHT22;6979;52.116;5.286;2022-11-23T03:51:40;12.60;99.90
13817;DHT22;6979;52.116;5.286;2022-11-23T03:54:07;12.60;99.90
13817;DHT22;6979;52.116;5.286;2022-11-23T03:56:34;12.60;99.90
13817;DHT22;6979;52.116;5.286;2022-11-23T03:59:01;12.60;99.90
13817;DHT22;6979;52.116;5.286;2022-11-23T04:01:28;12.60;99.90
13817;DHT22;6979;52.116;5.286;2022-11-23T04:04:00;12.60;99.90
13817;DHT22;6979;52.116;5.286;2022-11-23T04:06:37;12.60;99.90
13817;DHT22;6979;52.116;5.286;2022-11-23T04:09:17;12.60;99.90
13817;DHT22;6979;52.116;5.286;2022-11-23T04:11:58;12.60;99.90
13817;DHT22;6979;52.116;5.286;2022-11-23T04:14:25;12.60;99.90
13817;DHT22;6979;52.116;5.286;2022-11-23T04:16:51;12.60;99.90
13817;DHT22;6979;52.116;5.286;2022-11-23T04:19:19;12.60;99.90
13817;DHT22;6979;52.116;5.286;2022-11-23T04:21:47;12.60;99.90
13817;DHT22;6979;52.116;5.286;2022-11-23T04:24:14;12.60;99.90
13817;DHT22;6979;52.116;5.286;2022-11-23T04:26:44;12.60;99.90
13817;DHT22;6979;52.116;5.286;2022-11-23T04:29:10;12.70;99.90
13817;DHT22;6979;52.116;5.286;2022-11-23T04:31:42;12.60;99.90
13817;DHT22;6979;52.116;5.286;2022-11-23T04:34:12;12.70;99.90
13817;DHT22;6979;52.116;5.286;2022-11-23T04:36:39;12.70;99.90
13817;DHT22;6979;52.116;5.286;2022-11-23T04:39:09;12.70;99.90
13817;DHT22;6979;52.116;5.286;2022-11-23T04:41:53;12.70;99.90
13817;DHT22;6979;52.116;5.286;2022-11-23T04:44:19;12.70;99.90
13817;DHT22;6979;52.116;5.286;2022-11-23T04:46:49;12.70;99.90
13817;DHT22;6979;52.116;5.286;2022-11-23T04:49:18;12.70;99.90
13817;DHT22;6979;52.116;5.286;2022-11-23T04:51:45;12.70;99.90
13817;DHT22;6979;52.116;5.286;2022-11-23T04:54:15;12.70;99.90
13817;DHT22;6979;52.116;5.286;2022-11-23T04:56:48;12.70;99.90
13817;DHT22;6979;52.116;5.286;2022-11-23T04:59:16;12.70;99.90
13817;DHT22;6979;52.116;5.286;2022-11-23T05:01:44;12.70;99.90
13817;DHT22;6979;52.116;5.286;2022-11-23T05:04:32;12.70;99.90
13817;DHT22;6979;52.116;5.286;2022-11-23T05:06:59;12.70;99.90
13817;DHT22;6979;52.116;5.286;2022-11-23T05:09:28;12.70;99.90
13817;DHT22;6979;52.116;5.286;2022-11-23T05:12:12;12.70;99.90
13817;DHT22;6979;52.116;5.286;2022-11-23T05:14:39;12.60;99.90
13817;DHT22;6979;52.116;5.286;2022-11-23T05:17:08;12.60;99.90
13817;DHT22;6979;52.116;5.286;2022-11-23T05:19:35;12.60;99.90
13817;DHT22;6979;52.116;5.286;2022-11-23T05:22:02;12.60;99.90
13817;DHT22;6979;52.116;5.286;2022-11-23T05:24:32;12.60;99.90
13817;DHT22;6979;52.116;5.286;2022-11-23T05:27:07;12.60;99.90
13817;DHT22;6979;52.116;5.286;2022-11-23T05:29:34;12.60;99.90
13817;DHT22;6979;52.116;5.286;2022-11-23T05:32:03;12.60;99.90
13817;DHT22;6979;52.116;5.286;2022-11-23T05:34:30;12.60;99.90
13817;DHT22;6979;52.116;5.286;2022-11-23T05:36:58;12.60;99.90
13817;DHT22;6979;52.116;5.286;2022-11-23T05:39:25;12.60;99.90
13817;DHT22;6979;52.116;5.286;2022-11-23T05:41:54;12.60;99.90
13817;DHT22;6979;52.116;5.286;2022-11-23T05:44:29;12.70;99.90
13817;DHT22;6979;52.116;5.286;2022-11-23T05:46:57;12.70;99.90
13817;DHT22;6979;52.116;5.286;2022-11-23T05:49:25;12.70;99.90
13817;DHT22;6979;52.116;5.286;2022-11-23T05:51:52;12.70;99.90
13817;DHT22;6979;52.116;5.286;2022-11-23T05:54:19;12.70;99.90
13817;DHT22;6979;52.116;5.286;2022-11-23T05:57:04;12.70;99.90
13817;DHT22;6979;52.116;5.286;2022-11-23T05:59:36;12.70;99.90
13817;DHT22;6979;52.116;5.286;2022-11-23T06:02:04;12.70;99.90
13817;DHT22;6979;52.116;5.286;2022-11-23T06:04:33;12.70;99.90
13817;DHT22;6979;52.116;5.286;2022-11-23T06:07:00;12.70;99.90
13817;DHT22;6979;52.116;5.286;2022-11-23T06:09:46;12.70;99.90
13817;DHT22;6979;52.116;5.286;2022-11-23T06:12:15;12.70;99.90
13817;DHT22;6979;52.116;5.286;2022-11-23T06:14:41;12.70;99.90
13817;DHT22;6979;52.116;5.286;2022-11-23T06:17:09;12.70;99.90
13817;DHT22;6979;52.116;5.286;2022-11-23T06:19:41;12.70;99.90
13817;DHT22;6979;52.116;5.286;2022-11-23T06:22:09;12.70;99.90
13817;DHT22;6979;52.116;5.286;2022-11-23T06:24:43;12.70;99.90
13817;DHT22;6979;52.116;5.286;2022-11-23T06:27:30;12.70;99.90
13817;DHT22;6979;52.116;5.286;2022-11-23T06:29:57;12.70;99.90
13817;DHT22;6979;52.116;5.286;2022-11-23T06:32:26;12.70;99.90
13817;DHT22;6979;52.116;5.286;2022-11-23T06:34:54;12.70;99.90
13817;DHT22;6979;52.116;5.286;2022-11-23T06:37:20;12.70;99.90
13817;DHT22;6979;52.116;5.286;2022-11-23T06:39:51;12.70;99.90
13817;DHT22;6979;52.116;5.286;2022-11-23T06:42:18;12.70;99.90
13817;DHT22;6979;52.116;5.286;2022-11-23T06:44:46;12.70;99.90
13817;DHT22;6979;52.116;5.286;2022-11-23T06:47:14;12.70;99.90
13817;DHT22;6979;52.116;5.286;2022-11-23T06:49:40;12.70;99.90
13817;DHT22;6979;52.116;5.286;2022-11-23T06:52:14;12.70;99.90
13817;DHT22;6979;52.116;5.286;2022-11-23T06:54:41;12.60;99.90
13817;DHT22;6979;52.116;5.286;2022-11-23T06:57:08;12.60;99.90
13817;DHT22;6979;52.116;5.286;2022-11-23T06:59:36;12.60;99.90
13817;DHT22;6979;52.116;5.286;2022-11-23T07:02:05;12.60;99.90
13817;DHT22;6979;52.116;5.286;2022-11-23T07:04:35;12.60;99.90
13817;DHT22;6979;52.116;5.286;2022-11-23T07:07:06;12.50;99.90
13817;DHT22;6979;52.116;5.286;2022-11-23T07:09:43;12.50;99.90
13817;DHT22;6979;52.116;5.286;2022-11-23T07:12:31;12.50;99.90
13817;DHT22;6979;52.116;5.286;2022-11-23T07:15:00;12.50;99.90
13817;DHT22;6979;52.116;5.286;2022-11-23T07:17:37;12.40;99.90
13817;DHT22;6979;52.116;5.286;2022-11-23T07:20:06;12.40;99.90
13817;DHT22;6979;52.116;5.286;2022-11-23T07:22:33;12.30;99.90
13817;DHT22;6979;52.116;5.286;2022-11-23T07:25:00;12.30;99.90
13817;DHT22;6979;52.116;5.286;2022-11-23T07:27:27;12.30;99.90
13817;DHT22;6979;52.116;5.286;2022-11-23T07:29:54;12.20;99.90
13817;DHT22;6979;52.116;5.286;2022-11-23T07:32:21;12.20;99.90
13817;DHT22;6979;52.116;5.286;2022-11-23T07:34:50;12.10;99.90
13817;DHT22;6979;52.116;5.286;2022-11-23T07:37:16;12.10;99.90
13817;DHT22;6979;52.116;5.286;2022-11-23T07:39:44;12.10;99.90
13817;DHT22;6979;52.116;5.286;2022-11-23T07:42:11;12.10;99.90
13817;DHT22;6979;52.116;5.286;2022-11-23T07:44:38;12.00;99.90
13817;DHT22;6979;52.116;5.286;2022-11-23T07:47:08;12.00;99.90
13817;DHT22;6979;52.116;5.286;2022-11-23T07:49:35;12.00;99.90
13817;DHT22;6979;52.116;5.286;2022-11-23T07:52:03;11.90;99.90
13817;DHT22;6979;52.116;5.286;2022-11-23T07:54:30;12.00;99.90
13817;DHT22;6979;52.116;5.286;2022-11-23T07:56:57;11.90;99.90
13817;DHT22;6979;52.116;5.286;2022-11-23T07:59:23;11.90;99.90
13817;DHT22;6979;52.116;5.286;2022-11-23T08:01:50;11.90;99.90
13817;DHT22;6979;52.116;5.286;2022-11-23T08:04:17;12.00;99.90
13817;DHT22;6979;52.116;5.286;2022-11-23T08:06:44;12.00;99.90
13817;DHT22;6979;52.116;5.286;2022-11-23T08:09:12;12.00;99.90
13817;DHT22;6979;52.116;5.286;2022-11-23T08:11:39;12.00;99.90
13817;DHT22;6979;52.116;5.286;2022-11-23T08:14:05;12.00;99.90
13817;DHT22;6979;52.116;5.286;2022-11-23T08:16:32;12.10;99.90
13817;DHT22;6979;52.116;5.286;2022-11-23T08:18:59;12.10;99.90
13817;DHT22;6979;52.116;5.286;2022-11-23T08:21:25;12.10;99.90
13817;DHT22;6979;52.116;5.286;2022-11-23T08:23:52;12.20;99.90
13817;DHT22;6979;52.116;5.286;2022-11-23T08:26:20;12.10;99.90
13817;DHT22;6979;52.116;5.286;2022-11-23T08:28:47;12.10;99.90
13817;DHT22;6979;52.116;5.286;2022-11-23T08:31:14;12.10;99.90
13817;DHT22;6979;52.116;5.286;2022-11-23T08:33:41;12.10;99.90
13817;DHT22;6979;52.116;5.286;2022-11-23T08:36:08;12.10;99.90
13817;DHT22;6979;52.116;5.286;2022-11-23T08:38:35;12.10;99.90
13817;DHT22;6979;52.116;5.286;2022-11-23T08:41:03;12.00;99.90
13817;DHT22;6979;52.116;5.286;2022-11-23T08:43:31;12.00;99.90
13817;DHT22;6979;52.116;5.286;2022-11-23T08:46:00;12.00;99.90
13817;DHT22;6979;52.116;5.286;2022-11-23T08:48:27;12.00;99.90
13817;DHT22;6979;52.116;5.286;2022-11-23T08:50:57;12.00;99.90
13817;DHT22;6979;52.116;5.286;2022-11-23T08:53:24;12.00;99.90
13817;DHT22;6979;52.116;5.286;2022-11-23T08:55:51;12.00;99.90
13817;DHT22;6979;52.116;5.286;2022-11-23T08:58:18;12.10;99.90
13817;DHT22;6979;52.116;5.286;2022-11-23T09:00:46;12.10;99.90
13817;DHT22;6979;52.116;5.286;2022-11-23T09:03:13;12.10;99.90
13817;DHT22;6979;52.116;5.286;2022-11-23T09:05:40;12.10;99.90
13817;DHT22;6979;52.116;5.286;2022-11-23T09:08:07;12.20;99.90
13817;DHT22;6979;52.116;5.286;2022-11-23T09:10:34;12.20;99.90
13817;DHT22;6979;52.116;5.286;2022-11-23T09:13:01;12.20;99.90
13817;DHT22;6979;52.116;5.286;2022-11-23T09:15:28;12.30;99.90
13817;DHT22;6979;52.116;5.286;2022-11-23T09:17:56;12.30;99.90
13817;DHT22;6979;52.116;5.286;2022-11-23T09:20:23;12.30;99.90
13817;DHT22;6979;52.116;5.286;2022-11-23T09:22:50;12.40;99.90
13817;DHT22;6979;52.116;5.286;2022-11-23T09:25:17;12.40;99.90
13817;DHT22;6979;52.116;5.286;2022-11-23T09:27:44;12.50;99.90
13817;DHT22;6979;52.116;5.286;2022-11-23T09:30:12;12.50;99.90
13817;DHT22;6979;52.116;5.286;2022-11-23T09:32:39;12.60;99.90
13817;DHT22;6979;52.116;5.286;2022-11-23T09:35:08;12.70;99.90
13817;DHT22;6979;52.116;5.286;2022-11-23T09:37:34;12.80;99.90
13817;DHT22;6979;52.116;5.286;2022-11-23T09:40:02;13.00;99.90
13817;DHT22;6979;52.116;5.286;2022-11-23T09:42:56;13.20;99.90
13817;DHT22;6979;52.116;5.286;2022-11-23T09:45:34;13.70;99.90
13817;DHT22;6979;52.116;5.286;2022-11-23T09:48:22;14.10;99.90
13817;DHT22;6979;52.116;5.286;2022-11-23T09:50:57;14.50;99.90
13817;DHT22;6979;52.116;5.286;2022-11-23T09:53:29;14.90;99.90
13817;DHT22;6979;52.116;5.286;2022-11-23T09:55:57;15.30;99.90
13817;DHT22;6979;52.116;5.286;2022-11-23T09:58:28;15.60;99.90
13817;DHT22;6979;52.116;5.286;2022-11-23T10:01:00;16.00;99.90
13817;DHT22;6979;52.116;5.286;2022-11-23T10:03:28;16.40;99.90
13817;DHT22;6979;52.116;5.286;2022-11-23T10:06:03;16.70;99.90
13817;DHT22;6979;52.116;5.286;2022-11-23T10:08:37;17.00;99.90
13817;DHT22;6979;52.116;5.286;2022-11-23T10:11:38;17.30;99.90
13817;DHT22;6979;52.116;5.286;2022-11-23T10:14:22;17.50;99.90
13817;DHT22;6979;52.116;5.286;2022-11-23T10:16:58;17.70;99.90
13817;DHT22;6979;52.116;5.286;2022-11-23T10:19:34;17.80;99.90
13817;DHT22;6979;52.116;5.286;2022-11-23T10:22:11;18.00;99.90
13817;DHT22;6979;52.116;5.286;2022-11-23T10:24:43;18.10;99.90
13817;DHT22;6979;52.116;5.286;2022-11-23T10:27:14;18.20;99.90
13817;DHT22;6979;52.116;5.286;2022-11-23T10:29:43;18.40;99.90
13817;DHT22;6979;52.116;5.286;2022-11-23T10:32:21;18.60;99.90
13817;DHT22;6979;52.116;5.286;2022-11-23T10:34:57;18.70;99.90
13817;DHT22;6979;52.116;5.286;2022-11-23T10:37:26;18.80;99.90
13817;DHT22;6979;52.116;5.286;2022-11-23T10:39:53;18.90;99.90
13817;DHT22;6979;52.116;5.286;2022-11-23T10:42:24;19.00;99.90
13817;DHT22;6979;52.116;5.286;2022-11-23T10:44:54;19.10;99.90
13817;DHT22;6979;52.116;5.286;2022-11-23T10:47:39;19.10;99.90
13817;DHT22;6979;52.116;5.286;2022-11-23T10:50:25;19.10;99.90
13817;DHT22;6979;52.116;5.286;2022-11-23T10:52:55;19.00;99.90
13817;DHT22;6979;52.116;5.286;2022-11-23T10:55:27;18.90;99.90
13817;DHT22;6979;52.116;5.286;2022-11-23T10:57:54;18.70;99.90
13817;DHT22;6979;52.116;5.286;2022-11-23T11:00:22;18.40;99.90
13817;DHT22;6979;52.116;5.286;2022-11-23T11:02:51;18.10;99.90
13817;DHT22;6979;52.116;5.286;2022-11-23T11:05:32;17.80;99.90
13817;DHT22;6979;52.116;5.286;2022-11-23T11:08:03;17.50;99.90
13817;DHT22;6979;52.116;5.286;2022-11-23T11:10:39;17.10;99.90
13817;DHT22;6979;52.116;5.286;2022-11-23T11:13:24;16.80;99.90
13817;DHT22;6979;52.116;5.286;2022-11-23T11:15:53;16.40;99.90
13817;DHT22;6979;52.116;5.286;2022-11-23T11:18:20;16.20;99.90
13817;DHT22;6979;52.116;5.286;2022-11-23T11:20:55;15.90;99.90
13817;DHT22;6979;52.116;5.286;2022-11-23T11:23:24;15.60;99.90
13817;DHT22;6979;52.116;5.286;2022-11-23T11:26:03;15.40;99.90
13817;DHT22;6979;52.116;5.286;2022-11-23T11:28:34;15.10;99.90
13817;DHT22;6979;52.116;5.286;2022-11-23T11:33:55;14.80;99.90
13817;DHT22;6979;52.116;5.286;2022-11-23T11:36:29;14.60;99.90
13817;DHT22;6979;52.116;5.286;2022-11-23T11:39:02;14.50;99.90
13817;DHT22;6979;52.116;5.286;2022-11-23T11:41:32;14.40;99.90
13817;DHT22;6979;52.116;5.286;2022-11-23T11:44:04;14.30;99.90
13817;DHT22;6979;52.116;5.286;2022-11-23T11:46:35;14.20;99.90
13817;DHT22;6979;52.116;5.286;2022-11-23T11:49:07;14.10;99.90
13817;DHT22;6979;52.116;5.286;2022-11-23T11:51:42;14.10;99.90
13817;DHT22;6979;52.116;5.286;2022-11-23T11:54:19;14.20;99.90
13817;DHT22;6979;52.116;5.286;2022-11-23T11:56:49;14.20;99.90
13817;DHT22;6979;52.116;5.286;2022-11-23T11:59:21;14.30;99.90
13817;DHT22;6979;52.116;5.286;2022-11-23T12:01:54;14.40;99.90
13817;DHT22;6979;52.116;5.286;2022-11-23T12:04:26;14.50;99.90
13817;DHT22;6979;52.116;5.286;2022-11-23T12:07:03;14.60;99.90
13817;DHT22;6979;52.116;5.286;2022-11-23T12:09:36;14.70;99.90
13817;DHT22;6979;52.116;5.286;2022-11-23T12:12:06;14.70;99.90
13817;DHT22;6979;52.116;5.286;2022-11-23T12:14:37;14.80;99.90
13817;DHT22;6979;52.116;5.286;2022-11-23T12:17:07;14.90;99.90
13817;DHT22;6979;52.116;5.286;2022-11-23T12:19:40;15.00;99.90
13817;DHT22;6979;52.116;5.286;2022-11-23T12:22:30;15.10;99.90
13817;DHT22;6979;52.116;5.286;2022-11-23T12:25:10;15.20;99.90
13817;DHT22;6979;52.116;5.286;2022-11-23T12:27:47;15.20;99.90
13817;DHT22;6979;52.116;5.286;2022-11-23T12:30:20;15.40;99.90
13817;DHT22;6979;52.116;5.286;2022-11-23T12:35:47;15.60;99.90
13817;DHT22;6979;52.116;5.286;2022-11-23T12:38:28;15.70;99.90
13817;DHT22;6979;52.116;5.286;2022-11-23T12:41:08;15.80;99.90
13817;DHT22;6979;52.116;5.286;2022-11-23T12:43:58;15.90;99.90
13817;DHT22;6979;52.116;5.286;2022-11-23T12:46:34;16.00;99.90
13817;DHT22;6979;52.116;5.286;2022-11-23T12:49:14;16.10;99.90
13817;DHT22;6979;52.116;5.286;2022-11-23T12:51:50;16.10;99.90
13817;DHT22;6979;52.116;5.286;2022-11-23T12:54:45;16.20;99.90
13817;DHT22;6979;52.116;5.286;2022-11-23T12:57:20;16.20;99.90
13817;DHT22;6979;52.116;5.286;2022-11-23T12:59:51;16.10;99.90
13817;DHT22;6979;52.116;5.286;2022-11-23T13:02:57;16.10;99.90
13817;DHT22;6979;52.116;5.286;2022-11-23T13:05:49;16.10;99.90
13817;DHT22;6979;52.116;5.286;2022-11-23T13:08:41;16.00;99.90
13817;DHT22;6979;52.116;5.286;2022-11-23T13:11:20;15.90;99.90
13817;DHT22;6979;52.116;5.286;2022-11-23T13:14:05;15.80;99.90
13817;DHT22;6979;52.116;5.286;2022-11-23T13:16:42;15.70;99.90
13817;DHT22;6979;52.116;5.286;2022-11-23T13:19:38;15.60;99.90
13817;DHT22;6979;52.116;5.286;2022-11-23T13:22:11;15.50;99.90
13817;DHT22;6979;52.116;5.286;2022-11-23T13:25:00;15.40;99.90
13817;DHT22;6979;52.116;5.286;2022-11-23T13:27:44;15.30;99.90
13817;DHT22;6979;52.116;5.286;2022-11-23T13:30:24;15.20;99.90
13817;DHT22;6979;52.116;5.286;2022-11-23T13:32:54;15.10;99.90
13817;DHT22;6979;52.116;5.286;2022-11-23T13:35:48;15.00;99.90
13817;DHT22;6979;52.116;5.286;2022-11-23T13:38:35;14.90;99.90
13817;DHT22;6979;52.116;5.286;2022-11-23T13:41:03;14.80;99.90
13817;DHT22;6979;52.116;5.286;2022-11-23T13:43:31;14.80;99.90
13817;DHT22;6979;52.116;5.286;2022-11-23T13:46:24;14.70;99.90
13817;DHT22;6979;52.116;5.286;2022-11-23T13:48:53;14.70;99.90
13817;DHT22;6979;52.116;5.286;2022-11-23T13:51:25;14.60;99.90
13817;DHT22;6979;52.116;5.286;2022-11-23T13:53:57;14.40;99.90
13817;DHT22;6979;52.116;5.286;2022-11-23T13:56:32;14.20;99.90
13817;DHT22;6979;52.116;5.286;2022-11-23T13:59:28;14.00;99.90
13817;DHT22;6979;52.116;5.286;2022-11-23T14:02:02;13.90;99.90
13817;DHT22;6979;52.116;5.286;2022-11-23T14:04:48;13.70;99.90
13817;DHT22;6979;52.116;5.286;2022-11-23T14:07:16;13.50;99.90
13817;DHT22;6979;52.116;5.286;2022-11-23T14:09:49;13.40;99.90
13817;DHT22;6979;52.116;5.286;2022-11-23T14:12:21;13.20;99.90
13817;DHT22;6979;52.116;5.286;2022-11-23T14:14:54;13.10;99.90
13817;DHT22;6979;52.116;5.286;2022-11-23T14:17:45;13.00;99.90
13817;DHT22;6979;52.116;5.286;2022-11-23T14:20:28;12.90;99.90
13817;DHT22;6979;52.116;5.286;2022-11-23T14:23:08;12.90;99.90
13817;DHT22;6979;52.116;5.286;2022-11-23T14:25:48;12.80;99.90
13817;DHT22;6979;52.116;5.286;2022-11-23T14:28:32;12.80;99.90
13817;DHT22;6979;52.116;5.286;2022-11-23T14:31:10;12.70;99.90
13817;DHT22;6979;52.116;5.286;2022-11-23T14:33:46;12.70;99.90
13817;DHT22;6979;52.116;5.286;2022-11-23T14:36:25;12.60;99.90
13817;DHT22;6979;52.116;5.286;2022-11-23T14:39:17;12.60;99.90
13817;DHT22;6979;52.116;5.286;2022-11-23T14:41:51;12.60;99.90
13817;DHT22;6979;52.116;5.286;2022-11-23T14:44:23;12.60;99.90
13817;DHT22;6979;52.116;5.286;2022-11-23T14:47:01;12.50;99.90
13817;DHT22;6979;52.116;5.286;2022-11-23T14:49:29;12.50;99.90
13817;DHT22;6979;52.116;5.286;2022-11-23T14:51:57;12.50;99.90
13817;DHT22;6979;52.116;5.286;2022-11-23T14:54:24;12.50;99.90
13817;DHT22;6979;52.116;5.286;2022-11-23T14:56:52;12.50;99.90
13817;DHT22;6979;52.116;5.286;2022-11-23T14:59:24;12.50;99.90
13817;DHT22;6979;52.116;5.286;2022-11-23T15:01:55;12.50;99.90
13817;DHT22;6979;52.116;5.286;2022-11-23T15:04:24;12.50;99.90
13817;DHT22;6979;52.116;5.286;2022-11-23T15:06:56;12.40;99.90
13817;DHT22;6979;52.116;5.286;2022-11-23T15:09:43;12.40;99.90
13817;DHT22;6979;52.116;5.286;2022-11-23T15:12:21;12.40;99.90
13817;DHT22;6979;52.116;5.286;2022-11-23T15:14:50;12.40;99.90
13817;DHT22;6979;52.116;5.286;2022-11-23T15:17:19;12.40;99.90
13817;DHT22;6979;52.116;5.286;2022-11-23T15:19:54;12.40;99.90
13817;DHT22;6979;52.116;5.286;2022-11-23T15:22:23;12.40;99.90
13817;DHT22;6979;52.116;5.286;2022-11-23T15:24:51;12.30;99.90
13817;DHT22;6979;52.116;5.286;2022-11-23T15:27:24;12.40;99.90
13817;DHT22;6979;52.116;5.286;2022-11-23T15:29:54;12.40;99.90
13817;DHT22;6979;52.116;5.286;2022-11-23T15:32:24;12.40;99.90
13817;DHT22;6979;52.116;5.286;2022-11-23T15:34:52;12.40;99.90
13817;DHT22;6979;52.116;5.286;2022-11-23T15:37:22;12.40;99.90
13817;DHT22;6979;52.116;5.286;2022-11-23T15:39:50;12.40;99.90
13817;DHT22;6979;52.116;5.286;2022-11-23T15:42:19;12.40;99.90
13817;DHT22;6979;52.116;5.286;2022-11-23T15:44:47;12.40;99.90
13817;DHT22;6979;52.116;5.286;2022-11-23T15:47:16;12.40;99.90
13817;DHT22;6979;52.116;5.286;2022-11-23T15:49:45;12.40;99.90
13817;DHT22;6979;52.116;5.286;2022-11-23T15:52:14;12.40;99.90
13817;DHT22;6979;52.116;5.286;2022-11-23T15:54:42;12.40;99.90
13817;DHT22;6979;52.116;5.286;2022-11-23T15:57:14;12.40;99.90
13817;DHT22;6979;52.116;5.286;2022-11-23T15:59:44;12.40;99.90
13817;DHT22;6979;52.116;5.286;2022-11-23T16:02:14;12.40;99.90
13817;DHT22;6979;52.116;5.286;2022-11-23T16:04:42;12.40;99.90
13817;DHT22;6979;52.116;5.286;2022-11-23T16:07:19;12.40;99.90
13817;DHT22;6979;52.116;5.286;2022-11-23T16:10:01;12.40;99.90
13817;DHT22;6979;52.116;5.286;2022-11-23T16:12:30;12.40;99.90
13817;DHT22;6979;52.116;5.286;2022-11-23T16:15:31;12.40;99.90
13817;DHT22;6979;52.116;5.286;2022-11-23T16:17:58;12.40;99.90